Brisben, New York
Current Conditions -  °F | °C
As of 10:53 PM on Sunday 23 Nov 2014 (Local Time) from KBGM Reporting Station
Overcast Overcast  
Wind Chill:   Ceiling: 3300
Heat Index:   Visibility: 10mi
Dew Point:   Wind: 13mph
Humidity: 63%   Direction: 150°SSE
Pressure: 29.88"   Gusts: NA
Location:  42.4446°N, 75.6311°W
Report Text: KBGM 240353Z 15011KT 10SM OVC033 08/02 A2988 RMK AO2 SLP125 T00830017
Loading
Personal Weather Stations






























Interactive Weather Map New forecast layout! Learn more

10-Day Weather Forecast

Advertisements
Track Severe Weather on mobile